PWSweather.com
Personal Weather Stations
Station Observations
ABQWX
Albuquerque, NM 87110

Albuquerque, NM 87110

Lat: 35.1305, Lon: -106.58571

Elevation: 5210

Station Type: LaCrosse

http://www.albuquerqueweather.info/

Latest ConditionsUpdated 8:00:03 PM MST Sunday, Mar 1, 2015
Currently Today's Max Today's Min Today's Average
Temperature 54.8°F12.7°C 64.8°F18.2°C 33.7°F0.9°C 45.8°F7.7°C
Dew Point 34.9°F1.6°C 46.7°F8.2°C 29.7°F-1.3°C 36.1°F2.3°C
Winds 5.1 mph S8.2 kmh S 5.1 mph S8.2 kmh S - 1.9 mph 3.1 kmh
Wind Gusts 9.6 mph15.4 kmh 9.6 mph15.4 kmh - -
Humidity 47% 88% 45% 71%
Pressure 30.09 in1019.0 mb 30.17 in1021.7 mb 30.05 in1017.6 mb -
Precipitation - 0.01 in0.3 mm - -
Hour Temp Dew Point Humidity Winds Wind Gusts Pressure Precip Precip Rate Daily Precip Total
08:00 PM 54.8°F12.7°C 34.9°F1.6°C 47% 5.1 mph S8.2 kmh S 9.6 mph15.4 kmh 30.09 in1019.0 mb 0.00 in0.0 mm 0.00 in/hr0.0 mm/hr 0.01 in0.3 mm
07:00 PM 56.9°F13.8°C 35.8°F2.1°C 45% 3.4 mph SE5.5 kmh SE 8.7 mph14.0 kmh 30.07 in1018.3 mb 0.00 in0.0 mm 0.00 in/hr0.0 mm/hr 0.01 in0.3 mm
06:00 PM 59.4°F15.2°C 38.1°F3.4°C 45% 4.6 mph S7.4 kmh S 9.2 mph14.8 kmh 30.05 in1017.6 mb 0.00 in0.0 mm 0.00 in/hr0.0 mm/hr 0.01 in0.3 mm
05:00 PM 61.2°F16.2°C 41.4°F5.2°C 48% 2.7 mph S4.3 kmh S 6.0 mph9.7 kmh 30.05 in1017.6 mb 0.00 in0.0 mm 0.00 in/hr0.0 mm/hr 0.01 in0.3 mm
04:00 PM 62.1°F16.7°C 43.8°F6.6°C 51% 1.4 mph SSE2.3 kmh SSE 4.7 mph7.6 kmh 30.06 in1017.9 mb 0.00 in0.0 mm 0.00 in/hr0.0 mm/hr 0.01 in0.3 mm
03:00 PM 64.8°F18.2°C 46.3°F7.9°C 51% 2.2 mph WSW3.5 kmh WSW 5.4 mph8.7 kmh 30.07 in1018.3 mb 0.00 in0.0 mm 0.00 in/hr0.0 mm/hr 0.01 in0.3 mm
02:00 PM 60.7°F15.9°C 46.7°F8.2°C 60% 1.9 mph S3.1 kmh S 3.4 mph5.5 kmh 30.09 in1019.0 mb 0.00 in0.0 mm 0.00 in/hr0.0 mm/hr 0.01 in0.3 mm
01:00 PM 55.1°F12.8°C 44.4°F6.9°C 67% 3.1 mph SSW5.0 kmh SSW 6.3 mph10.1 kmh 30.12 in1020.0 mb 0.00 in0.0 mm 0.00 in/hr0.0 mm/hr 0.01 in0.3 mm
12:00 PM 52.1°F11.2°C 42.6°F5.9°C 70% 2.4 mph SSW3.9 kmh SSW 5.8 mph9.3 kmh 30.15 in1021.0 mb 0.00 in0.0 mm 0.00 in/hr0.0 mm/hr 0.01 in0.3 mm
11:00 AM 48.6°F9.2°C 41.1°F5.1°C 75% 1.4 mph SW2.3 kmh SW 3.4 mph5.5 kmh 30.17 in1021.7 mb 0.01 in0.3 mm 0.00 in/hr0.0 mm/hr 0.01 in0.3 mm
10:00 AM 42.0°F5.6°C 37.2°F2.9°C 83% 0.6 mph WNW1.0 kmh WNW 2.0 mph3.2 kmh 30.17 in1021.7 mb 0.00 in0.0 mm 0.00 in/hr0.0 mm/hr 0.00 in0.0 mm
09:00 AM 37.3°F2.9°C 33.5°F0.8°C 86% 1.4 mph WSW2.3 kmh WSW 2.7 mph4.3 kmh 30.17 in1021.7 mb 0.00 in0.0 mm 0.00 in/hr0.0 mm/hr 0.00 in0.0 mm
08:00 AM 35.1°F1.7°C 31.7°F-0.2°C 87% 1.5 mph NE2.4 kmh NE 3.1 mph5.0 kmh 30.15 in1021.0 mb 0.00 in0.0 mm 0.00 in/hr0.0 mm/hr 0.00 in0.0 mm
07:00 AM 34.1°F1.2°C 30.9°F-0.6°C 88% 1.4 mph NW2.3 kmh NW 3.1 mph5.0 kmh 30.14 in1020.7 mb 0.00 in0.0 mm 0.00 in/hr0.0 mm/hr 0.00 in0.0 mm
06:00 AM 33.9°F1.1°C 30.4°F-0.9°C 87% 1.5 mph WNW2.4 kmh WNW 2.7 mph4.3 kmh 30.11 in1019.6 mb 0.00 in0.0 mm 0.00 in/hr0.0 mm/hr 0.00 in0.0 mm
05:00 AM 33.9°F1.1°C 30.1°F-1.1°C 86% Calm Calm -- 30.10 in1019.3 mb 0.00 in0.0 mm 0.00 in/hr0.0 mm/hr 0.00 in0.0 mm
04:00 AM 33.9°F1.1°C 30.1°F-1.1°C 86% 0.5 mph W0.8 kmh W 1.1 mph1.8 kmh 30.09 in1019.0 mb 0.00 in0.0 mm 0.00 in/hr0.0 mm/hr 0.00 in0.0 mm
03:00 AM 33.7°F0.9°C 29.7°F-1.3°C 85% 1.1 mph W1.8 kmh W 2.5 mph4.0 kmh 30.09 in1019.0 mb 0.00 in0.0 mm 0.00 in/hr0.0 mm/hr 0.00 in0.0 mm
02:00 AM 34.1°F1.2°C 29.7°F-1.3°C 84% 0.8 mph WSW1.3 kmh WSW 2.0 mph3.2 kmh 30.09 in1019.0 mb 0.00 in0.0 mm 0.00 in/hr0.0 mm/hr 0.00 in0.0 mm
01:00 AM 34.1°F1.2°C 29.7°F-1.3°C 84% 1.6 mph NW2.6 kmh NW 3.4 mph5.5 kmh 30.07 in1018.3 mb 0.00 in0.0 mm 0.00 in/hr0.0 mm/hr 0.00 in0.0 mm
12:00 AM 33.7°F0.9°C 29.7°F-1.3°C 85% 1.5 mph NNW2.4 kmh NNW 3.1 mph5.0 kmh 30.07 in1018.3 mb 0.00 in0.0 mm 0.00 in/hr0.0 mm/hr 0.00 in0.0 mm